sensor_id;sensor_type;location;lat;lon;timestamp;P1;P2;P0
64631;PMS5003;58358;50.936;0.246;2023-05-15T00:01:58;53;51;
64631;PMS5003;58358;50.936;0.246;2023-05-15T00:04:24;54;51;
64631;PMS5003;58358;50.936;0.246;2023-05-15T00:06:49;64;57;
64631;PMS5003;58358;50.936;0.246;2023-05-15T00:09:15;61;55;
64631;PMS5003;58358;50.936;0.246;2023-05-15T00:11:40;65;59;
64631;PMS5003;58358;50.936;0.246;2023-05-15T00:14:06;54;51;
64631;PMS5003;58358;50.936;0.246;2023-05-15T00:16:31;63;54;
64631;PMS5003;58358;50.936;0.246;2023-05-15T00:18:57;70;60;
64631;PMS5003;58358;50.936;0.246;2023-05-15T00:21:22;59;51;
64631;PMS5003;58358;50.936;0.246;2023-05-15T00:23:48;66;59;
64631;PMS5003;58358;50.936;0.246;2023-05-15T00:26:13;65;62;
64631;PMS5003;58358;50.936;0.246;2023-05-15T00:28:38;59;57;
64631;PMS5003;58358;50.936;0.246;2023-05-15T00:31:03;65;61;
64631;PMS5003;58358;50.936;0.246;2023-05-15T00:33:29;62;60;
64631;PMS5003;58358;50.936;0.246;2023-05-15T00:36:00;64;60;
64631;PMS5003;58358;50.936;0.246;2023-05-15T00:38:20;63;56;
64631;PMS5003;58358;50.936;0.246;2023-05-15T00:40:45;56;53;
64631;PMS5003;58358;50.936;0.246;2023-05-15T00:43:10;63;61;
64631;PMS5003;58358;50.936;0.246;2023-05-15T00:45:35;56;54;
64631;PMS5003;58358;50.936;0.246;2023-05-15T00:48:01;66;62;
64631;PMS5003;58358;50.936;0.246;2023-05-15T00:50:27;60;55;
64631;PMS5003;58358;50.936;0.246;2023-05-15T00:52:52;66;60;
64631;PMS5003;58358;50.936;0.246;2023-05-15T00:55:17;68;57;
64631;PMS5003;58358;50.936;0.246;2023-05-15T00:57:43;54;51;
64631;PMS5003;58358;50.936;0.246;2023-05-15T01:00:08;62;59;
64631;PMS5003;58358;50.936;0.246;2023-05-15T01:02:33;56;53;
64631;PMS5003;58358;50.936;0.246;2023-05-15T01:04:59;57;51;
64631;PMS5003;58358;50.936;0.246;2023-05-15T01:07:24;62;58;
64631;PMS5003;58358;50.936;0.246;2023-05-15T01:09:49;57;52;
64631;PMS5003;58358;50.936;0.246;2023-05-15T01:12:15;67;63;
64631;PMS5003;58358;50.936;0.246;2023-05-15T01:14:40;57;53;
64631;PMS5003;58358;50.936;0.246;2023-05-15T01:17:05;62;58;
64631;PMS5003;58358;50.936;0.246;2023-05-15T01:19:31;66;59;
64631;PMS5003;58358;50.936;0.246;2023-05-15T01:22:02;61;53;
64631;PMS5003;58358;50.936;0.246;2023-05-15T01:24:26;60;57;
64631;PMS5003;58358;50.936;0.246;2023-05-15T01:26:52;61;61;
64631;PMS5003;58358;50.936;0.246;2023-05-15T01:29:13;59;56;
64631;PMS5003;58358;50.936;0.246;2023-05-15T01:31:38;56;55;
64631;PMS5003;58358;50.936;0.246;2023-05-15T01:34:06;60;58;
64631;PMS5003;58358;50.936;0.246;2023-05-15T01:36:31;60;56;
64631;PMS5003;58358;50.936;0.246;2023-05-15T01:38:55;62;58;
64631;PMS5003;58358;50.936;0.246;2023-05-15T01:41:21;61;59;
64631;PMS5003;58358;50.936;0.246;2023-05-15T01:43:47;53;53;
64631;PMS5003;58358;50.936;0.246;2023-05-15T01:46:12;53;49;
64631;PMS5003;58358;50.936;0.246;2023-05-15T01:48:38;52;48;
64631;PMS5003;58358;50.936;0.246;2023-05-15T01:51:03;49;47;
64631;PMS5003;58358;50.936;0.246;2023-05-15T01:53:29;51;47;
64631;PMS5003;58358;50.936;0.246;2023-05-15T01:55:54;45;42;
64631;PMS5003;58358;50.936;0.246;2023-05-15T01:58:19;44;43;
64631;PMS5003;58358;50.936;0.246;2023-05-15T02:00:44;45;40;
64631;PMS5003;58358;50.936;0.246;2023-05-15T02:03:09;41;41;
64631;PMS5003;58358;50.936;0.246;2023-05-15T02:05:34;47;42;
64631;PMS5003;58358;50.936;0.246;2023-05-15T02:08:00;40;39;
64631;PMS5003;58358;50.936;0.246;2023-05-15T02:10:25;42;38;
64631;PMS5003;58358;50.936;0.246;2023-05-15T02:12:51;43;39;
64631;PMS5003;58358;50.936;0.246;2023-05-15T02:15:16;44;42;
64631;PMS5003;58358;50.936;0.246;2023-05-15T02:17:42;43;42;
64631;PMS5003;58358;50.936;0.246;2023-05-15T02:20:07;41;38;
64631;PMS5003;58358;50.936;0.246;2023-05-15T02:22:33;41;37;
64631;PMS5003;58358;50.936;0.246;2023-05-15T02:24:58;47;40;
64631;PMS5003;58358;50.936;0.246;2023-05-15T02:27:25;44;41;
64631;PMS5003;58358;50.936;0.246;2023-05-15T02:29:55;39;39;
64631;PMS5003;58358;50.936;0.246;2023-05-15T02:32:16;43;39;
64631;PMS5003;58358;50.936;0.246;2023-05-15T02:34:43;38;37;
64631;PMS5003;58358;50.936;0.246;2023-05-15T02:37:07;36;36;
64631;PMS5003;58358;50.936;0.246;2023-05-15T02:39:32;40;39;
64631;PMS5003;58358;50.936;0.246;2023-05-15T02:41:57;39;38;
64631;PMS5003;58358;50.936;0.246;2023-05-15T02:44:22;35;34;
64631;PMS5003;58358;50.936;0.246;2023-05-15T02:46:48;39;34;
64631;PMS5003;58358;50.936;0.246;2023-05-15T02:49:13;36;36;
64631;PMS5003;58358;50.936;0.246;2023-05-15T02:51:39;37;36;
64631;PMS5003;58358;50.936;0.246;2023-05-15T02:54:04;38;36;
64631;PMS5003;58358;50.936;0.246;2023-05-15T02:56:30;32;30;
64631;PMS5003;58358;50.936;0.246;2023-05-15T02:58:55;41;41;
64631;PMS5003;58358;50.936;0.246;2023-05-15T03:01:20;33;32;
64631;PMS5003;58358;50.936;0.246;2023-05-15T03:03:46;34;34;
64631;PMS5003;58358;50.936;0.246;2023-05-15T03:06:11;37;34;
64631;PMS5003;58358;50.936;0.246;2023-05-15T03:08:37;33;33;
64631;PMS5003;58358;50.936;0.246;2023-05-15T03:11:02;35;33;
64631;PMS5003;58358;50.936;0.246;2023-05-15T03:13:28;34;33;
64631;PMS5003;58358;50.936;0.246;2023-05-15T03:15:54;31;30;
64631;PMS5003;58358;50.936;0.246;2023-05-15T03:18:19;41;35;
64631;PMS5003;58358;50.936;0.246;2023-05-15T03:20:45;35;34;
64631;PMS5003;58358;50.936;0.246;2023-05-15T03:23:10;33;33;
64631;PMS5003;58358;50.936;0.246;2023-05-15T03:25:36;41;36;
64631;PMS5003;58358;50.936;0.246;2023-05-15T03:28:02;29;28;
64631;PMS5003;58358;50.936;0.246;2023-05-15T03:30:27;27;27;
64631;PMS5003;58358;50.936;0.246;2023-05-15T03:32:53;25;24;
64631;PMS5003;58358;50.936;0.246;2023-05-15T03:35:19;24;24;
64631;PMS5003;58358;50.936;0.246;2023-05-15T03:37:44;20;20;
64631;PMS5003;58358;50.936;0.246;2023-05-15T03:40:10;17;17;
64631;PMS5003;58358;50.936;0.246;2023-05-15T03:42:35;19;19;
64631;PMS5003;58358;50.936;0.246;2023-05-15T03:45:01;15;14;
64631;PMS5003;58358;50.936;0.246;2023-05-15T03:47:27;15;15;
64631;PMS5003;58358;50.936;0.246;2023-05-15T03:49:52;17;14;
64631;PMS5003;58358;50.936;0.246;2023-05-15T03:52:18;16;16;
64631;PMS5003;58358;50.936;0.246;2023-05-15T03:54:43;14;13;
64631;PMS5003;58358;50.936;0.246;2023-05-15T03:57:09;15;14;
64631;PMS5003;58358;50.936;0.246;2023-05-15T03:59:34;13;12;
64631;PMS5003;58358;50.936;0.246;2023-05-15T04:02:00;9;9;
64631;PMS5003;58358;50.936;0.246;2023-05-15T04:04:26;11;11;
64631;PMS5003;58358;50.936;0.246;2023-05-15T04:06:52;12;11;
64631;PMS5003;58358;50.936;0.246;2023-05-15T04:09:17;10;10;
64631;PMS5003;58358;50.936;0.246;2023-05-15T04:11:43;12;12;
64631;PMS5003;58358;50.936;0.246;2023-05-15T04:14:09;12;12;
64631;PMS5003;58358;50.936;0.246;2023-05-15T04:16:35;12;11;
64631;PMS5003;58358;50.936;0.246;2023-05-15T04:19:00;12;12;
64631;PMS5003;58358;50.936;0.246;2023-05-15T04:21:26;10;10;
64631;PMS5003;58358;50.936;0.246;2023-05-15T04:23:52;11;11;
64631;PMS5003;58358;50.936;0.246;2023-05-15T04:26:18;10;10;
64631;PMS5003;58358;50.936;0.246;2023-05-15T04:28:43;10;10;
64631;PMS5003;58358;50.936;0.246;2023-05-15T04:31:09;11;11;
64631;PMS5003;58358;50.936;0.246;2023-05-15T04:33:35;13;13;
64631;PMS5003;58358;50.936;0.246;2023-05-15T04:36:00;12;12;
64631;PMS5003;58358;50.936;0.246;2023-05-15T04:38:26;11;11;
64631;PMS5003;58358;50.936;0.246;2023-05-15T04:40:52;11;11;
64631;PMS5003;58358;50.936;0.246;2023-05-15T04:43:18;13;13;
64631;PMS5003;58358;50.936;0.246;2023-05-15T04:45:43;11;11;
64631;PMS5003;58358;50.936;0.246;2023-05-15T04:48:09;14;13;
64631;PMS5003;58358;50.936;0.246;2023-05-15T04:50:34;15;15;
64631;PMS5003;58358;50.936;0.246;2023-05-15T04:53:00;13;13;
64631;PMS5003;58358;50.936;0.246;2023-05-15T04:55:25;16;16;
64631;PMS5003;58358;50.936;0.246;2023-05-15T04:57:50;14;14;
64631;PMS5003;58358;50.936;0.246;2023-05-15T05:00:16;15;15;
64631;PMS5003;58358;50.936;0.246;2023-05-15T05:02:41;12;12;
64631;PMS5003;58358;50.936;0.246;2023-05-15T05:05:07;16;14;
64631;PMS5003;58358;50.936;0.246;2023-05-15T05:07:33;17;17;
64631;PMS5003;58358;50.936;0.246;2023-05-15T05:09:58;14;14;
64631;PMS5003;58358;50.936;0.246;2023-05-15T05:12:24;17;14;
64631;PMS5003;58358;50.936;0.246;2023-05-15T05:14:50;12;12;
64631;PMS5003;58358;50.936;0.246;2023-05-15T05:17:15;16;15;
64631;PMS5003;58358;50.936;0.246;2023-05-15T05:19:41;14;14;
64631;PMS5003;58358;50.936;0.246;2023-05-15T05:22:07;13;12;
64631;PMS5003;58358;50.936;0.246;2023-05-15T05:24:33;14;14;
64631;PMS5003;58358;50.936;0.246;2023-05-15T05:26:58;12;12;
64631;PMS5003;58358;50.936;0.246;2023-05-15T05:29:24;13;13;
64631;PMS5003;58358;50.936;0.246;2023-05-15T05:31:49;12;12;
64631;PMS5003;58358;50.936;0.246;2023-05-15T05:34:15;12;12;
64631;PMS5003;58358;50.936;0.246;2023-05-15T05:36:40;13;13;
64631;PMS5003;58358;50.936;0.246;2023-05-15T05:39:06;12;12;
64631;PMS5003;58358;50.936;0.246;2023-05-15T05:41:31;14;13;
64631;PMS5003;58358;50.936;0.246;2023-05-15T05:43:57;12;10;
64631;PMS5003;58358;50.936;0.246;2023-05-15T05:46:23;12;12;
64631;PMS5003;58358;50.936;0.246;2023-05-15T05:48:49;13;13;
64631;PMS5003;58358;50.936;0.246;2023-05-15T05:51:14;14;14;
64631;PMS5003;58358;50.936;0.246;2023-05-15T05:53:40;14;13;
64631;PMS5003;58358;50.936;0.246;2023-05-15T05:56:06;12;11;
64631;PMS5003;58358;50.936;0.246;2023-05-15T05:58:31;14;13;
64631;PMS5003;58358;50.936;0.246;2023-05-15T06:00:57;13;10;
64631;PMS5003;58358;50.936;0.246;2023-05-15T06:03:22;12;11;
64631;PMS5003;58358;50.936;0.246;2023-05-15T06:05:48;11;11;
64631;PMS5003;58358;50.936;0.246;2023-05-15T06:08:13;8;8;
64631;PMS5003;58358;50.936;0.246;2023-05-15T06:10:39;11;10;
64631;PMS5003;58358;50.936;0.246;2023-05-15T06:13:05;9;8;
64631;PMS5003;58358;50.936;0.246;2023-05-15T06:15:31;10;9;
64631;PMS5003;58358;50.936;0.246;2023-05-15T06:17:56;11;11;
64631;PMS5003;58358;50.936;0.246;2023-05-15T06:20:21;12;11;
64631;PMS5003;58358;50.936;0.246;2023-05-15T06:22:47;10;10;
64631;PMS5003;58358;50.936;0.246;2023-05-15T06:25:13;11;11;
64631;PMS5003;58358;50.936;0.246;2023-05-15T06:27:39;11;11;
64631;PMS5003;58358;50.936;0.246;2023-05-15T06:30:04;15;13;
64631;PMS5003;58358;50.936;0.246;2023-05-15T06:32:30;10;10;
64631;PMS5003;58358;50.936;0.246;2023-05-15T06:34:55;10;10;
64631;PMS5003;58358;50.936;0.246;2023-05-15T06:37:21;14;10;
64631;PMS5003;58358;50.936;0.246;2023-05-15T06:39:47;11;11;
64631;PMS5003;58358;50.936;0.246;2023-05-15T06:42:13;11;11;
64631;PMS5003;58358;50.936;0.246;2023-05-15T06:44:38;12;12;
64631;PMS5003;58358;50.936;0.246;2023-05-15T06:47:04;9;9;
64631;PMS5003;58358;50.936;0.246;2023-05-15T06:49:29;12;12;
64631;PMS5003;58358;50.936;0.246;2023-05-15T06:51:55;12;12;
64631;PMS5003;58358;50.936;0.246;2023-05-15T06:54:20;14;14;
64631;PMS5003;58358;50.936;0.246;2023-05-15T06:56:46;10;9;
64631;PMS5003;58358;50.936;0.246;2023-05-15T06:59:12;8;8;
64631;PMS5003;58358;50.936;0.246;2023-05-15T07:01:38;10;10;
64631;PMS5003;58358;50.936;0.246;2023-05-15T07:04:03;10;10;
64631;PMS5003;58358;50.936;0.246;2023-05-15T07:06:29;8;8;
64631;PMS5003;58358;50.936;0.246;2023-05-15T07:08:54;15;12;
64631;PMS5003;58358;50.936;0.246;2023-05-15T07:11:20;9;6;
64631;PMS5003;58358;50.936;0.246;2023-05-15T07:13:46;7;6;
64631;PMS5003;58358;50.936;0.246;2023-05-15T07:16:11;4;4;
64631;PMS5003;58358;50.936;0.246;2023-05-15T07:18:37;6;6;
64631;PMS5003;58358;50.936;0.246;2023-05-15T07:21:03;7;7;
64631;PMS5003;58358;50.936;0.246;2023-05-15T07:23:28;7;6;
64631;PMS5003;58358;50.936;0.246;2023-05-15T07:25:54;8;8;
64631;PMS5003;58358;50.936;0.246;2023-05-15T07:28:20;7;6;
64631;PMS5003;58358;50.936;0.246;2023-05-15T07:30:45;5;5;
64631;PMS5003;58358;50.936;0.246;2023-05-15T07:33:11;4;4;
64631;PMS5003;58358;50.936;0.246;2023-05-15T07:35:37;4;4;
64631;PMS5003;58358;50.936;0.246;2023-05-15T07:38:02;3;3;
64631;PMS5003;58358;50.936;0.246;2023-05-15T07:40:28;7;5;
64631;PMS5003;58358;50.936;0.246;2023-05-15T07:42:54;6;5;
64631;PMS5003;58358;50.936;0.246;2023-05-15T07:45:19;3;3;
64631;PMS5003;58358;50.936;0.246;2023-05-15T07:47:45;4;4;
64631;PMS5003;58358;50.936;0.246;2023-05-15T07:50:11;4;4;
64631;PMS5003;58358;50.936;0.246;2023-05-15T07:52:37;5;5;
64631;PMS5003;58358;50.936;0.246;2023-05-15T07:55:03;4;4;
64631;PMS5003;58358;50.936;0.246;2023-05-15T07:57:28;6;6;
64631;PMS5003;58358;50.936;0.246;2023-05-15T07:59:54;5;4;
64631;PMS5003;58358;50.936;0.246;2023-05-15T08:02:20;4;4;
64631;PMS5003;58358;50.936;0.246;2023-05-15T08:04:45;5;5;
64631;PMS5003;58358;50.936;0.246;2023-05-15T08:07:12;4;4;
64631;PMS5003;58358;50.936;0.246;2023-05-15T08:09:37;6;6;
64631;PMS5003;58358;50.936;0.246;2023-05-15T08:14:28;6;6;
64631;PMS5003;58358;50.936;0.246;2023-05-15T08:16:54;6;5;
64631;PMS5003;58358;50.936;0.246;2023-05-15T08:19:20;4;4;
64631;PMS5003;58358;50.936;0.246;2023-05-15T08:21:45;8;8;
64631;PMS5003;58358;50.936;0.246;2023-05-15T08:24:11;7;5;
64631;PMS5003;58358;50.936;0.246;2023-05-15T08:26:37;8;7;
64631;PMS5003;58358;50.936;0.246;2023-05-15T08:29:02;7;7;
64631;PMS5003;58358;50.936;0.246;2023-05-15T08:31:28;5;4;
64631;PMS5003;58358;50.936;0.246;2023-05-15T08:33:54;3;3;
64631;PMS5003;58358;50.936;0.246;2023-05-15T08:36:19;9;6;
64631;PMS5003;58358;50.936;0.246;2023-05-15T08:38:45;4;4;
64631;PMS5003;58358;50.936;0.246;2023-05-15T08:41:13;4;4;
64631;PMS5003;58358;50.936;0.246;2023-05-15T08:43:36;6;6;
64631;PMS5003;58358;50.936;0.246;2023-05-15T08:46:02;3;3;
64631;PMS5003;58358;50.936;0.246;2023-05-15T08:48:28;2;2;
64631;PMS5003;58358;50.936;0.246;2023-05-15T08:50:53;3;3;
64631;PMS5003;58358;50.936;0.246;2023-05-15T08:53:19;2;2;
64631;PMS5003;58358;50.936;0.246;2023-05-15T08:55:45;3;3;
64631;PMS5003;58358;50.936;0.246;2023-05-15T08:58:10;3;3;
64631;PMS5003;58358;50.936;0.246;2023-05-15T09:00:36;4;4;
64631;PMS5003;58358;50.936;0.246;2023-05-15T09:03:02;3;2;
64631;PMS5003;58358;50.936;0.246;2023-05-15T09:05:28;3;2;
64631;PMS5003;58358;50.936;0.246;2023-05-15T09:07:53;0;0;
64631;PMS5003;58358;50.936;0.246;2023-05-15T09:10:19;1;1;
64631;PMS5003;58358;50.936;0.246;2023-05-15T09:12:45;2;2;
64631;PMS5003;58358;50.936;0.246;2023-05-15T09:15:11;3;2;
64631;PMS5003;58358;50.936;0.246;2023-05-15T09:17:36;3;3;
64631;PMS5003;58358;50.936;0.246;2023-05-15T09:20:02;3;2;
64631;PMS5003;58358;50.936;0.246;2023-05-15T09:22:28;3;2;
64631;PMS5003;58358;50.936;0.246;2023-05-15T09:24:53;5;2;
64631;PMS5003;58358;50.936;0.246;2023-05-15T09:27:19;3;3;
64631;PMS5003;58358;50.936;0.246;2023-05-15T09:29:45;2;2;
64631;PMS5003;58358;50.936;0.246;2023-05-15T09:32:11;2;2;
64631;PMS5003;58358;50.936;0.246;2023-05-15T09:34:36;1;1;
64631;PMS5003;58358;50.936;0.246;2023-05-15T09:37:04;3;2;
64631;PMS5003;58358;50.936;0.246;2023-05-15T09:39:27;1;1;
64631;PMS5003;58358;50.936;0.246;2023-05-15T09:41:53;4;2;
64631;PMS5003;58358;50.936;0.246;2023-05-15T09:44:19;2;2;
64631;PMS5003;58358;50.936;0.246;2023-05-15T09:46:44;4;3;
64631;PMS5003;58358;50.936;0.246;2023-05-15T09:49:10;3;3;
64631;PMS5003;58358;50.936;0.246;2023-05-15T09:51:36;4;3;
64631;PMS5003;58358;50.936;0.246;2023-05-15T09:54:02;2;2;
64631;PMS5003;58358;50.936;0.246;2023-05-15T09:56:27;3;2;
64631;PMS5003;58358;50.936;0.246;2023-05-15T09:58:53;1;1;
64631;PMS5003;58358;50.936;0.246;2023-05-15T10:01:19;4;3;
64631;PMS5003;58358;50.936;0.246;2023-05-15T10:03:45;3;2;
64631;PMS5003;58358;50.936;0.246;2023-05-15T10:06:10;2;2;
64631;PMS5003;58358;50.936;0.246;2023-05-15T10:08:36;2;1;
64631;PMS5003;58358;50.936;0.246;2023-05-15T10:11:02;3;3;
64631;PMS5003;58358;50.936;0.246;2023-05-15T10:13:27;3;3;
64631;PMS5003;58358;50.936;0.246;2023-05-15T10:15:53;4;4;
64631;PMS5003;58358;50.936;0.246;2023-05-15T10:18:18;3;1;
64631;PMS5003;58358;50.936;0.246;2023-05-15T10:20:44;2;2;
64631;PMS5003;58358;50.936;0.246;2023-05-15T10:23:10;3;3;
64631;PMS5003;58358;50.936;0.246;2023-05-15T10:25:37;4;3;
64631;PMS5003;58358;50.936;0.246;2023-05-15T10:28:01;1;1;
64631;PMS5003;58358;50.936;0.246;2023-05-15T10:30:27;2;2;
64631;PMS5003;58358;50.936;0.246;2023-05-15T10:32:52;2;2;
64631;PMS5003;58358;50.936;0.246;2023-05-15T10:35:18;3;3;
64631;PMS5003;58358;50.936;0.246;2023-05-15T10:37:44;6;6;
64631;PMS5003;58358;50.936;0.246;2023-05-15T10:40:09;18;17;
64631;PMS5003;58358;50.936;0.246;2023-05-15T10:42:35;4;3;
64631;PMS5003;58358;50.936;0.246;2023-05-15T10:45:00;1;1;
64631;PMS5003;58358;50.936;0.246;2023-05-15T10:47:26;5;3;
64631;PMS5003;58358;50.936;0.246;2023-05-15T10:49:52;2;2;
64631;PMS5003;58358;50.936;0.246;2023-05-15T10:52:17;4;2;
64631;PMS5003;58358;50.936;0.246;2023-05-15T10:54:43;3;3;
64631;PMS5003;58358;50.936;0.246;2023-05-15T10:57:09;2;2;
64631;PMS5003;58358;50.936;0.246;2023-05-15T10:59:34;2;2;
64631;PMS5003;58358;50.936;0.246;2023-05-15T11:04:26;2;2;
64631;PMS5003;58358;50.936;0.246;2023-05-15T11:06:52;2;2;
64631;PMS5003;58358;50.936;0.246;2023-05-15T11:14:11;4;2;
64631;PMS5003;58358;50.936;0.246;2023-05-15T11:19:00;2;2;
64631;PMS5003;58358;50.936;0.246;2023-05-15T11:21:27;2;2;
64631;PMS5003;58358;50.936;0.246;2023-05-15T11:23:55;4;4;
64631;PMS5003;58358;50.936;0.246;2023-05-15T11:26:30;2;2;
64631;PMS5003;58358;50.936;0.246;2023-05-15T11:28:42;3;3;
64631;PMS5003;58358;50.936;0.246;2023-05-15T11:31:08;1;1;
64631;PMS5003;58358;50.936;0.246;2023-05-15T11:33:36;5;3;
64631;PMS5003;58358;50.936;0.246;2023-05-15T11:35:59;3;3;
64631;PMS5003;58358;50.936;0.246;2023-05-15T11:38:25;3;3;
64631;PMS5003;58358;50.936;0.246;2023-05-15T11:40:51;2;2;
64631;PMS5003;58358;50.936;0.246;2023-05-15T11:43:17;1;1;
64631;PMS5003;58358;50.936;0.246;2023-05-15T11:45:42;2;2;
64631;PMS5003;58358;50.936;0.246;2023-05-15T11:48:11;4;2;
64631;PMS5003;58358;50.936;0.246;2023-05-15T11:50:34;2;2;
64631;PMS5003;58358;50.936;0.246;2023-05-15T11:53:04;3;3;
64631;PMS5003;58358;50.936;0.246;2023-05-15T11:55:24;4;2;
64631;PMS5003;58358;50.936;0.246;2023-05-15T11:57:50;2;2;
64631;PMS5003;58358;50.936;0.246;2023-05-15T12:00:16;3;3;
64631;PMS5003;58358;50.936;0.246;2023-05-15T12:02:41;2;2;
64631;PMS5003;58358;50.936;0.246;2023-05-15T12:05:08;3;3;
64631;PMS5003;58358;50.936;0.246;2023-05-15T12:07:34;3;3;
64631;PMS5003;58358;50.936;0.246;2023-05-15T12:09:58;3;3;
64631;PMS5003;58358;50.936;0.246;2023-05-15T12:12:24;2;2;
64631;PMS5003;58358;50.936;0.246;2023-05-15T12:14:50;2;2;
64631;PMS5003;58358;50.936;0.246;2023-05-15T12:17:15;3;3;
64631;PMS5003;58358;50.936;0.246;2023-05-15T12:19:41;3;3;
64631;PMS5003;58358;50.936;0.246;2023-05-15T12:22:07;2;2;
64631;PMS5003;58358;50.936;0.246;2023-05-15T12:24:36;3;3;
64631;PMS5003;58358;50.936;0.246;2023-05-15T12:26:58;7;5;
64631;PMS5003;58358;50.936;0.246;2023-05-15T12:29:24;4;3;
64631;PMS5003;58358;50.936;0.246;2023-05-15T12:31:49;3;3;
64631;PMS5003;58358;50.936;0.246;2023-05-15T12:34:15;4;4;
64631;PMS5003;58358;50.936;0.246;2023-05-15T12:36:41;3;3;
64631;PMS5003;58358;50.936;0.246;2023-05-15T12:39:06;2;2;
64631;PMS5003;58358;50.936;0.246;2023-05-15T12:41:32;4;3;
64631;PMS5003;58358;50.936;0.246;2023-05-15T12:43:58;2;2;
64631;PMS5003;58358;50.936;0.246;2023-05-15T12:46:23;3;2;
64631;PMS5003;58358;50.936;0.246;2023-05-15T12:48:49;4;3;
64631;PMS5003;58358;50.936;0.246;2023-05-15T12:51:15;3;3;
64631;PMS5003;58358;50.936;0.246;2023-05-15T12:53:41;3;3;
64631;PMS5003;58358;50.936;0.246;2023-05-15T12:56:06;4;1;
64631;PMS5003;58358;50.936;0.246;2023-05-15T12:58:32;3;3;
64631;PMS5003;58358;50.936;0.246;2023-05-15T13:00:57;4;3;
64631;PMS5003;58358;50.936;0.246;2023-05-15T13:03:23;2;2;
64631;PMS5003;58358;50.936;0.246;2023-05-15T13:05:49;4;2;
64631;PMS5003;58358;50.936;0.246;2023-05-15T13:08:15;4;4;
64631;PMS5003;58358;50.936;0.246;2023-05-15T13:10:40;3;3;
64631;PMS5003;58358;50.936;0.246;2023-05-15T13:13:05;2;2;
64631;PMS5003;58358;50.936;0.246;2023-05-15T13:15:32;3;1;
64631;PMS5003;58358;50.936;0.246;2023-05-15T13:17:58;3;3;
64631;PMS5003;58358;50.936;0.246;2023-05-15T13:20:22;3;3;
64631;PMS5003;58358;50.936;0.246;2023-05-15T13:22:48;4;4;
64631;PMS5003;58358;50.936;0.246;2023-05-15T13:25:15;4;4;
64631;PMS5003;58358;50.936;0.246;2023-05-15T13:27:39;5;5;
64631;PMS5003;58358;50.936;0.246;2023-05-15T13:30:05;3;3;
64631;PMS5003;58358;50.936;0.246;2023-05-15T13:32:30;5;5;
64631;PMS5003;58358;50.936;0.246;2023-05-15T13:34:56;4;4;
64631;PMS5003;58358;50.936;0.246;2023-05-15T13:37:22;4;4;
64631;PMS5003;58358;50.936;0.246;2023-05-15T13:39:47;6;4;
64631;PMS5003;58358;50.936;0.246;2023-05-15T13:42:13;4;4;
64631;PMS5003;58358;50.936;0.246;2023-05-15T13:44:39;5;4;
64631;PMS5003;58358;50.936;0.246;2023-05-15T13:47:05;3;3;
64631;PMS5003;58358;50.936;0.246;2023-05-15T13:49:30;2;2;
64631;PMS5003;58358;50.936;0.246;2023-05-15T13:51:56;5;3;
64631;PMS5003;58358;50.936;0.246;2023-05-15T13:54:21;5;4;
64631;PMS5003;58358;50.936;0.246;2023-05-15T13:56:47;4;4;
64631;PMS5003;58358;50.936;0.246;2023-05-15T13:59:13;5;4;
64631;PMS5003;58358;50.936;0.246;2023-05-15T14:01:38;4;4;
64631;PMS5003;58358;50.936;0.246;2023-05-15T14:04:03;4;4;
64631;PMS5003;58358;50.936;0.246;2023-05-15T14:06:29;3;3;
64631;PMS5003;58358;50.936;0.246;2023-05-15T14:08:55;3;3;
64631;PMS5003;58358;50.936;0.246;2023-05-15T14:11:20;4;4;
64631;PMS5003;58358;50.936;0.246;2023-05-15T14:13:46;4;4;
64631;PMS5003;58358;50.936;0.246;2023-05-15T14:16:12;5;4;
64631;PMS5003;58358;50.936;0.246;2023-05-15T14:18:38;4;3;
64631;PMS5003;58358;50.936;0.246;2023-05-15T14:21:03;3;2;
64631;PMS5003;58358;50.936;0.246;2023-05-15T14:23:29;2;2;
64631;PMS5003;58358;50.936;0.246;2023-05-15T14:25:54;3;3;
64631;PMS5003;58358;50.936;0.246;2023-05-15T14:28:20;5;5;
64631;PMS5003;58358;50.936;0.246;2023-05-15T14:30:45;3;3;
64631;PMS5003;58358;50.936;0.246;2023-05-15T14:33:11;7;4;
64631;PMS5003;58358;50.936;0.246;2023-05-15T14:35:37;5;4;
64631;PMS5003;58358;50.936;0.246;2023-05-15T14:38:02;3;3;
64631;PMS5003;58358;50.936;0.246;2023-05-15T14:40:28;4;4;
64631;PMS5003;58358;50.936;0.246;2023-05-15T14:42:54;3;3;
64631;PMS5003;58358;50.936;0.246;2023-05-15T14:45:19;3;3;
64631;PMS5003;58358;50.936;0.246;2023-05-15T14:47:45;6;5;
64631;PMS5003;58358;50.936;0.246;2023-05-15T14:50:11;3;3;
64631;PMS5003;58358;50.936;0.246;2023-05-15T14:52:36;4;4;
64631;PMS5003;58358;50.936;0.246;2023-05-15T14:55:02;3;3;
64631;PMS5003;58358;50.936;0.246;2023-05-15T14:57:27;3;3;
64631;PMS5003;58358;50.936;0.246;2023-05-15T14:59:53;4;4;
64631;PMS5003;58358;50.936;0.246;2023-05-15T15:02:18;4;4;
64631;PMS5003;58358;50.936;0.246;2023-05-15T15:04:44;5;4;
64631;PMS5003;58358;50.936;0.246;2023-05-15T15:07:10;3;3;
64631;PMS5003;58358;50.936;0.246;2023-05-15T15:09:35;3;3;
64631;PMS5003;58358;50.936;0.246;2023-05-15T15:12:01;4;4;
64631;PMS5003;58358;50.936;0.246;2023-05-15T15:14:27;5;5;
64631;PMS5003;58358;50.936;0.246;2023-05-15T15:16:54;13;13;
64631;PMS5003;58358;50.936;0.246;2023-05-15T15:19:18;3;3;
64631;PMS5003;58358;50.936;0.246;2023-05-15T15:21:44;5;4;
64631;PMS5003;58358;50.936;0.246;2023-05-15T15:24:09;5;5;
64631;PMS5003;58358;50.936;0.246;2023-05-15T15:26:35;5;3;
64631;PMS5003;58358;50.936;0.246;2023-05-15T15:29:01;7;6;
64631;PMS5003;58358;50.936;0.246;2023-05-15T15:31:27;4;3;
64631;PMS5003;58358;50.936;0.246;2023-05-15T15:33:52;4;4;
64631;PMS5003;58358;50.936;0.246;2023-05-15T15:36:17;4;4;
64631;PMS5003;58358;50.936;0.246;2023-05-15T15:38:43;7;6;
64631;PMS5003;58358;50.936;0.246;2023-05-15T15:41:09;6;5;
64631;PMS5003;58358;50.936;0.246;2023-05-15T15:43:34;5;5;
64631;PMS5003;58358;50.936;0.246;2023-05-15T15:46:00;4;4;
64631;PMS5003;58358;50.936;0.246;2023-05-15T15:48:25;5;5;
64631;PMS5003;58358;50.936;0.246;2023-05-15T15:50:51;6;5;
64631;PMS5003;58358;50.936;0.246;2023-05-15T15:53:16;4;4;
64631;PMS5003;58358;50.936;0.246;2023-05-15T15:55:42;4;4;
64631;PMS5003;58358;50.936;0.246;2023-05-15T15:58:08;3;3;
64631;PMS5003;58358;50.936;0.246;2023-05-15T16:00:35;5;5;
64631;PMS5003;58358;50.936;0.246;2023-05-15T16:02:59;5;4;
64631;PMS5003;58358;50.936;0.246;2023-05-15T16:05:25;3;3;
64631;PMS5003;58358;50.936;0.246;2023-05-15T16:07:50;5;4;
64631;PMS5003;58358;50.936;0.246;2023-05-15T16:10:16;4;4;
64631;PMS5003;58358;50.936;0.246;2023-05-15T16:12:42;4;4;
64631;PMS5003;58358;50.936;0.246;2023-05-15T16:15:13;3;3;
64631;PMS5003;58358;50.936;0.246;2023-05-15T16:17:33;6;5;
64631;PMS5003;58358;50.936;0.246;2023-05-15T16:19:58;3;3;
64631;PMS5003;58358;50.936;0.246;2023-05-15T16:22:24;5;5;
64631;PMS5003;58358;50.936;0.246;2023-05-15T16:24:50;4;4;
64631;PMS5003;58358;50.936;0.246;2023-05-15T16:27:16;5;5;
64631;PMS5003;58358;50.936;0.246;2023-05-15T16:29:41;5;5;
64631;PMS5003;58358;50.936;0.246;2023-05-15T16:32:07;4;4;
64631;PMS5003;58358;50.936;0.246;2023-05-15T16:34:32;7;7;
64631;PMS5003;58358;50.936;0.246;2023-05-15T16:36:58;7;6;